Terminal Aerodrome Forecast
Issued by NWS

Home | Current Version | Previous Version | Text Only | Print | Product List | Glossary On
Versions: 1 2 3 4 5 6 7 8 9 10 11 12 13 14 15 16
000
FTUS41 KCAR 190500 RRA
TAFFVE
TAF
KFVE 190555Z 1906/2006 00000KT 3SM -SN OVC003
     FM191100 00000KT P6SM -SN OVC025
     FM191300 25004KT P6SM OVC015
     FM191700 31013KT P6SM OVC025
     FM192000 32015KT P6SM OVC040=

USA.gov is the U.S. government's official web portal to all federal, state and local government web resources and services.